Time;durP1;ratioP1;P1;durP2;ratioP2;P2;SDS_P1;SDS_P2;PMS_P1;PMS_P2;Temp;Humidity;BMP_temperature;BMP_pressure;BME280_temperature;BME280_humidity;BME280_pressure;Samples;Min_cycle;Max_cycle;Signal;HPM_P1;HPM_P2
2022/08/19 00:01:50;;;;;;;1.20;1.10;;;23.80;67.20;;;;;;5012763;28;20206;-69
2022/08/19 00:04:18;;;;;;;1.20;1.20;;;23.90;67.20;;;;;;5032934;28;20455;-69
2022/08/19 00:06:45;;;;;;;1.20;1.20;;;23.90;68.10;;;;;;5033035;28;20440;-69
2022/08/19 00:09:14;;;;;;;1.20;1.20;;;23.90;66.10;;;;;;5032615;28;20926;-68
2022/08/19 00:11:41;;;;;;;1.20;1.10;;;23.90;66.30;;;;;;5032464;28;20414;-69
2022/08/19 00:14:09;;;;;;;1.20;1.10;;;23.90;65.80;;;;;;5031363;28;20427;-68
2022/08/19 00:16:36;;;;;;;1.20;1.10;;;23.90;65.10;;;;;;5032512;28;20483;-69
2022/08/19 00:19:03;;;;;;;1.20;1.10;;;23.90;65.90;;;;;;5032210;28;20418;-69
2022/08/19 00:21:29;;;;;;;1.23;1.20;;;23.80;66.00;;;;;;5031929;28;20793;-69
2022/08/19 00:23:57;;;;;;;1.20;1.10;;;23.90;65.20;;;;;;5031650;28;20414;-69
2022/08/19 00:26:24;;;;;;;1.20;1.20;;;23.90;66.80;;;;;;5031971;28;20322;-68
2022/08/19 00:28:50;;;;;;;1.20;1.10;;;23.70;67.00;;;;;;5013195;28;20503;-69
2022/08/19 00:31:16;;;;;;;1.20;1.10;;;23.70;68.10;;;;;;5012302;28;20471;-69
2022/08/19 00:33:42;;;;;;;1.20;1.20;;;23.90;66.00;;;;;;5012384;28;20415;-69
2022/08/19 00:36:11;;;;;;;1.20;1.20;;;23.80;66.10;;;;;;5012699;28;20279;-69
2022/08/19 00:38:40;;;;;;;1.20;1.10;;;23.70;67.00;;;;;;5028274;28;20430;-69
2022/08/19 00:41:06;;;;;;;1.20;1.10;;;23.60;67.50;;;;;;5032082;28;20442;-69
2022/08/19 00:43:32;;;;;;;1.20;1.13;;;23.70;67.60;;;;;;5032150;28;20503;-69
2022/08/19 00:45:57;;;;;;;1.20;1.10;;;23.70;66.80;;;;;;5031888;28;20222;-69
2022/08/19 00:48:23;;;;;;;1.20;1.20;;;23.80;66.80;;;;;;5031872;28;20187;-69
2022/08/19 00:50:52;;;;;;;1.20;1.20;;;23.80;66.50;;;;;;5031108;28;20187;-69
2022/08/19 00:53:21;;;;;;;1.20;1.20;;;23.80;66.30;;;;;;5031860;28;20172;-68
2022/08/19 00:55:49;;;;;;;1.20;1.10;;;23.80;65.70;;;;;;5031939;28;20422;-69
2022/08/19 00:58:18;;;;;;;1.20;1.10;;;23.80;65.90;;;;;;5031667;28;20472;-69
2022/08/19 01:00:45;;;;;;;1.20;1.10;;;23.70;66.10;;;;;;5031750;28;20464;-68
2022/08/19 01:03:13;;;;;;;1.30;1.20;;;23.60;65.90;;;;;;5031331;28;20509;-69
2022/08/19 01:05:41;;;;;;;1.20;1.10;;;23.60;66.50;;;;;;5031810;28;20522;-69
2022/08/19 01:08:08;;;;;;;1.20;1.20;;;23.60;67.20;;;;;;5031784;28;20431;-69
2022/08/19 01:10:43;;;;;;;1.20;1.20;;;23.70;66.90;;;;;;5031106;28;20419;-68
2022/08/19 01:13:09;;;;;;;1.20;1.10;;;23.80;65.70;;;;;;5031183;28;20412;-68
2022/08/19 01:15:43;;;;;;;1.20;1.10;;;23.80;65.70;;;;;;5031331;28;20789;-69
2022/08/19 01:18:12;;;;;;;1.20;1.10;;;23.90;61.40;;;;;;5031904;28;20409;-68
2022/08/19 01:20:39;;;;;;;1.20;1.10;;;23.80;61.40;;;;;;5031086;28;20426;-69
2022/08/19 01:23:05;;;;;;;1.20;1.10;;;24.00;60.00;;;;;;5031084;28;20814;-69
2022/08/19 01:25:43;;;;;;;1.30;1.20;;;23.90;59.60;;;;;;5030957;28;20438;-69
2022/08/19 01:28:17;;;;;;;1.20;1.10;;;23.90;61.10;;;;;;5031392;28;20160;-69
2022/08/19 01:30:44;;;;;;;1.23;1.20;;;23.90;61.40;;;;;;5028637;28;20478;-68
2022/08/19 01:33:10;;;;;;;1.20;1.20;;;23.60;63.70;;;;;;5031343;28;20418;-69
2022/08/19 01:35:36;;;;;;;1.20;1.20;;;23.60;64.30;;;;;;5031446;28;20521;-69
2022/08/19 01:38:07;;;;;;;1.20;1.17;;;23.70;59.50;;;;;;5030100;28;20215;-69
2022/08/19 01:40:35;;;;;;;1.20;1.17;;;23.90;58.60;;;;;;5031517;28;20456;-69
2022/08/19 01:43:02;;;;;;;1.20;1.10;;;23.90;60.10;;;;;;5024409;28;20492;-69
2022/08/19 01:45:32;;;;;;;1.23;1.20;;;23.80;59.60;;;;;;5030969;28;20512;-69
2022/08/19 01:47:58;;;;;;;1.20;1.10;;;23.70;61.20;;;;;;5031925;28;20459;-69
2022/08/19 01:50:25;;;;;;;1.20;1.20;;;23.60;62.90;;;;;;5030316;28;20819;-67
2022/08/19 01:52:51;;;;;;;1.20;1.13;;;23.60;63.40;;;;;;5025000;28;20935;-69
2022/08/19 01:55:20;;;;;;;1.20;1.20;;;23.50;62.90;;;;;;5020380;28;20437;-69
2022/08/19 01:57:52;;;;;;;1.20;1.10;;;23.50;64.30;;;;;;5011687;28;20579;-68
2022/08/19 02:00:20;;;;;;;1.20;1.20;;;23.50;63.80;;;;;;5021314;28;20867;-68
2022/08/19 02:02:46;;;;;;;1.20;1.20;;;23.50;64.50;;;;;;5029931;28;20469;-68
2022/08/19 02:05:12;;;;;;;1.30;1.20;;;23.50;64.10;;;;;;5030839;28;20418;-69
2022/08/19 02:07:40;;;;;;;1.20;1.20;;;23.30;65.30;;;;;;5031296;28;20548;-68
2022/08/19 02:10:09;;;;;;;1.20;1.20;;;23.20;65.90;;;;;;5030938;28;20507;-69
2022/08/19 02:12:35;;;;;;;1.20;1.10;;;23.20;64.90;;;;;;5030726;28;20899;-69
2022/08/19 02:15:02;;;;;;;1.20;1.10;;;23.30;64.80;;;;;;5030335;28;20848;-69
2022/08/19 02:17:28;;;;;;;1.20;1.10;;;23.20;66.20;;;;;;5031176;28;20923;-69
2022/08/19 02:19:55;;;;;;;1.20;1.10;;;23.30;64.50;;;;;;5031260;28;20493;-68
2022/08/19 02:22:21;;;;;;;1.23;1.20;;;23.40;64.40;;;;;;5030222;28;20471;-68
2022/08/19 02:24:47;;;;;;;1.20;1.13;;;23.40;64.90;;;;;;5030160;28;20504;-68
2022/08/19 02:27:13;;;;;;;1.20;1.20;;;23.40;64.90;;;;;;5031413;28;20188;-68
2022/08/19 02:29:39;;;;;;;1.20;1.10;;;23.20;64.70;;;;;;5031367;28;20407;-68
2022/08/19 02:32:05;;;;;;;1.20;1.20;;;23.20;64.80;;;;;;5030628;28;20819;-69
2022/08/19 02:34:30;;;;;;;1.20;1.20;;;23.30;65.10;;;;;;5030292;28;20187;-69
2022/08/19 02:36:56;;;;;;;1.20;1.17;;;23.40;64.70;;;;;;5034229;28;20274;-69
2022/08/19 02:39:22;;;;;;;1.20;1.10;;;23.40;65.20;;;;;;5034597;28;20205;-69
2022/08/19 02:41:49;;;;;;;1.20;1.20;;;23.40;64.60;;;;;;5034440;28;20253;-68
2022/08/19 02:44:15;;;;;;;1.20;1.20;;;23.30;65.10;;;;;;5034406;28;20171;-69
2022/08/19 02:46:40;;;;;;;1.20;1.10;;;23.30;65.50;;;;;;5034039;28;20859;-69
2022/08/19 02:49:07;;;;;;;1.20;1.20;;;23.30;64.40;;;;;;5034330;28;20229;-69
2022/08/19 02:51:36;;;;;;;1.20;1.10;;;23.30;64.40;;;;;;5034039;28;20190;-68
2022/08/19 02:54:03;;;;;;;1.20;1.20;;;23.40;64.70;;;;;;5034362;28;20782;-68
2022/08/19 02:56:30;;;;;;;1.20;1.10;;;23.50;64.50;;;;;;5034107;28;20446;-69
2022/08/19 02:58:56;;;;;;;1.20;1.13;;;23.40;64.70;;;;;;5034225;28;20406;-69
2022/08/19 03:01:31;;;;;;;1.20;1.20;;;23.40;64.40;;;;;;5034137;28;20457;-68
2022/08/19 03:03:59;;;;;;;1.20;1.20;;;23.30;65.10;;;;;;5033964;28;20416;-69
2022/08/19 03:06:25;;;;;;;1.20;1.10;;;23.30;65.60;;;;;;5033058;28;20446;-68
2022/08/19 03:08:51;;;;;;;1.20;1.20;;;23.20;65.70;;;;;;5030330;28;20440;-69
2022/08/19 03:11:29;;;;;;;1.20;1.17;;;23.20;65.60;;;;;;5013943;28;20421;-69
2022/08/19 03:13:56;;;;;;;1.23;1.20;;;23.20;65.60;;;;;;5014149;28;20407;-68
2022/08/19 03:16:23;;;;;;;1.20;1.13;;;23.20;66.20;;;;;;5014150;28;20832;-69
2022/08/19 03:18:50;;;;;;;1.20;1.20;;;23.20;66.20;;;;;;5014590;28;20457;-69
2022/08/19 03:21:19;;;;;;;1.20;1.10;;;23.20;65.50;;;;;;5033292;28;20433;-68
2022/08/19 03:23:45;;;;;;;1.20;1.20;;;23.20;65.10;;;;;;5032303;28;20427;-69
2022/08/19 03:26:10;;;;;;;1.20;1.10;;;23.30;65.00;;;;;;5033872;28;20434;-69
2022/08/19 03:28:37;;;;;;;1.20;1.10;;;23.20;66.80;;;;;;5033642;28;20840;-69
2022/08/19 03:31:09;;;;;;;1.20;1.10;;;23.20;67.00;;;;;;5032560;28;20194;-67
2022/08/19 03:33:35;;;;;;;1.20;1.10;;;23.20;65.50;;;;;;5033523;28;20422;-69
2022/08/19 03:36:08;;;;;;;1.20;1.10;;;23.20;66.00;;;;;;5033279;28;21028;-69
2022/08/19 03:38:36;;;;;;;1.20;1.13;;;23.40;64.80;;;;;;5033696;28;20748;-69
2022/08/19 03:41:06;;;;;;;1.20;1.10;;;23.30;64.60;;;;;;5032494;28;21121;-69
2022/08/19 03:43:33;;;;;;;1.20;1.10;;;23.20;64.20;;;;;;5033231;28;20405;-69
2022/08/19 03:46:10;;;;;;;1.20;1.10;;;23.30;63.60;;;;;;5033201;28;20491;-69
2022/08/19 03:48:36;;;;;;;1.20;1.20;;;23.20;66.40;;;;;;5032988;28;20397;-69
2022/08/19 03:51:03;;;;;;;1.20;1.10;;;23.10;66.10;;;;;;5032378;28;20437;-68
2022/08/19 03:53:29;;;;;;;1.20;1.03;;;23.00;66.20;;;;;;5033120;28;20418;-68
2022/08/19 03:55:56;;;;;;;1.20;1.20;;;23.00;67.30;;;;;;5024718;28;20445;-69
2022/08/19 03:58:22;;;;;;;1.20;1.20;;;23.20;66.90;;;;;;5013223;28;20422;-69
2022/08/19 04:00:48;;;;;;;1.20;1.20;;;23.20;65.90;;;;;;5013029;28;20926;-69
2022/08/19 04:03:15;;;;;;;1.20;1.20;;;23.40;63.10;;;;;;5027620;28;20465;-68
2022/08/19 04:05:40;;;;;;;1.20;1.10;;;23.20;64.70;;;;;;5032893;28;20423;-69
2022/08/19 04:08:06;;;;;;;1.20;1.13;;;23.20;65.60;;;;;;5033009;28;20892;-69
2022/08/19 04:10:40;;;;;;;1.20;1.10;;;23.20;64.90;;;;;;5032610;28;20177;-69
2022/08/19 04:13:06;;;;;;;1.20;1.10;;;23.10;65.40;;;;;;5032114;28;20182;-68
2022/08/19 04:15:38;;;;;;;1.20;1.10;;;23.20;65.60;;;;;;5020453;28;20453;-68
2022/08/19 04:18:07;;;;;;;1.20;1.17;;;23.20;65.30;;;;;;5013246;28;20778;-68
2022/08/19 04:20:44;;;;;;;1.20;1.20;;;23.40;64.20;;;;;;5011508;28;20426;-69
2022/08/19 04:23:10;;;;;;;1.20;1.20;;;23.30;64.70;;;;;;5014925;28;20465;-68
2022/08/19 04:25:41;;;;;;;1.20;1.10;;;23.20;66.30;;;;;;5032473;28;20437;-69
2022/08/19 04:28:09;;;;;;;1.20;1.20;;;23.20;64.40;;;;;;5032117;28;20430;-69
2022/08/19 04:30:44;;;;;;;1.20;1.20;;;23.30;64.50;;;;;;5032267;28;20425;-68
2022/08/19 04:33:12;;;;;;;1.20;1.10;;;23.40;61.70;;;;;;5032433;28;20394;-69
2022/08/19 04:35:40;;;;;;;1.20;1.10;;;21.90;62.50;;;;;;5030709;28;20805;-68
2022/08/19 04:38:06;;;;;;;1.27;1.20;;;23.50;61.80;;;;;;5029220;28;20982;-68
2022/08/19 04:43:16;;;;;;;1.20;1.10;;;23.50;61.10;;;;;;5032112;28;20278;-67
2022/08/19 04:45:45;;;;;;;1.20;1.10;;;23.60;58.60;;;;;;5031764;28;20542;-69
2022/08/19 04:48:12;;;;;;;1.20;1.00;;;23.40;62.50;;;;;;5031729;28;20187;-69
2022/08/19 04:50:41;;;;;;;1.20;1.10;;;23.40;62.50;;;;;;5032166;28;20463;-69
2022/08/19 04:53:07;;;;;;;1.20;1.17;;;23.40;62.00;;;;;;5031810;28;20426;-69
2022/08/19 04:55:33;;;;;;;1.20;1.10;;;23.50;61.10;;;;;;5031879;28;20952;-68
2022/08/19 04:57:59;;;;;;;1.20;1.03;;;23.40;63.20;;;;;;5031654;28;20176;-68
2022/08/19 05:00:25;;;;;;;1.20;1.20;;;23.30;63.20;;;;;;5031364;28;20171;-68
2022/08/19 05:02:50;;;;;;;1.20;1.13;;;23.30;63.60;;;;;;5031243;28;20468;-68
2022/08/19 05:05:17;;;;;;;1.20;1.20;;;23.40;62.90;;;;;;5031568;28;20204;-69
2022/08/19 05:07:42;;;;;;;1.20;1.10;;;23.50;62.00;;;;;;5031789;28;20276;-68
2022/08/19 05:10:08;;;;;;;1.20;1.20;;;23.40;61.00;;;;;;5013113;28;21006;-69
2022/08/19 05:12:34;;;;;;;1.20;1.10;;;23.40;58.80;;;;;;5011444;28;20260;-69
2022/08/19 05:15:00;;;;;;;1.20;1.20;;;23.30;60.90;;;;;;5011941;28;20414;-69
2022/08/19 05:17:27;;;;;;;1.20;1.17;;;23.30;62.00;;;;;;5011906;28;20181;-69
2022/08/19 05:22:37;;;;;;;1.20;1.20;;;23.40;61.00;;;;;;5030848;28;20543;-68
2022/08/19 05:25:09;;;;;;;1.20;1.20;;;23.20;63.70;;;;;;5031524;28;20510;-69
2022/08/19 05:27:35;;;;;;;1.20;1.20;;;23.40;63.60;;;;;;5031570;28;20186;-68
2022/08/19 05:30:01;;;;;;;1.30;1.30;;;23.40;62.80;;;;;;5024841;28;20442;-69
2022/08/19 05:32:27;;;;;;;1.20;1.20;;;23.20;63.00;;;;;;5011432;28;20190;-69
2022/08/19 05:34:53;;;;;;;1.20;1.20;;;23.40;63.00;;;;;;5011878;28;20408;-69
2022/08/19 05:37:18;;;;;;;1.27;1.20;;;23.50;61.60;;;;;;5011874;28;20447;-69
2022/08/19 05:39:44;;;;;;;1.20;1.20;;;23.40;60.80;;;;;;5012009;28;20184;-69
2022/08/19 05:42:11;;;;;;;1.20;1.10;;;23.40;61.00;;;;;;5026491;28;20610;-69
2022/08/19 05:44:43;;;;;;;1.20;1.13;;;23.40;59.60;;;;;;5031244;28;20230;-69
2022/08/19 05:47:10;;;;;;;1.20;1.20;;;23.40;58.40;;;;;;5031431;28;20841;-69
2022/08/19 05:49:37;;;;;;;1.20;1.10;;;23.40;58.50;;;;;;5031124;28;20435;-69
2022/08/19 05:52:13;;;;;;;1.20;1.20;;;23.50;58.30;;;;;;5031094;28;20473;-68
2022/08/19 05:54:41;;;;;;;1.30;1.27;;;23.50;58.20;;;;;;5031481;28;20401;-69
2022/08/19 05:57:07;;;;;;;1.20;1.10;;;23.50;57.10;;;;;;5031423;28;20445;-68
2022/08/19 05:59:35;;;;;;;1.20;1.20;;;23.10;59.10;;;;;;5030922;28;20470;-69
2022/08/19 06:02:02;;;;;;;1.20;1.20;;;23.00;62.10;;;;;;5030808;28;20453;-69
2022/08/19 06:04:28;;;;;;;1.30;1.20;;;23.10;60.70;;;;;;5031208;28;20475;-69
2022/08/19 06:06:54;;;;;;;1.20;1.10;;;23.20;57.60;;;;;;5031188;28;21497;-69
2022/08/19 06:09:21;;;;;;;1.20;1.10;;;23.30;57.70;;;;;;5031283;28;20788;-69
2022/08/19 06:11:53;;;;;;;1.27;1.20;;;23.40;57.40;;;;;;5028160;28;21028;-68
2022/08/19 06:14:24;;;;;;;1.20;1.10;;;23.60;56.50;;;;;;5015358;28;20414;-69
2022/08/19 06:16:53;;;;;;;1.20;1.10;;;23.50;57.30;;;;;;5015389;28;20427;-69
2022/08/19 06:19:22;;;;;;;1.20;1.20;;;23.60;56.60;;;;;;5015118;28;20930;-69
2022/08/19 06:21:49;;;;;;;1.20;1.10;;;23.60;57.00;;;;;;5023132;28;20470;-68
2022/08/19 06:24:18;;;;;;;1.20;1.10;;;23.70;56.10;;;;;;5034823;28;20871;-69
2022/08/19 06:26:46;;;;;;;1.20;1.20;;;23.70;55.20;;;;;;5034941;28;20425;-69
2022/08/19 06:29:14;;;;;;;1.20;1.10;;;23.60;56.40;;;;;;5034788;28;20410;-69
2022/08/19 06:31:45;;;;;;;1.30;1.30;;;23.50;56.60;;;;;;5034270;28;20457;-69
2022/08/19 06:34:11;;;;;;;1.20;1.20;;;23.50;57.40;;;;;;5023258;28;20775;-69
2022/08/19 06:36:43;;;;;;;1.20;1.13;;;23.50;57.20;;;;;;5034743;28;20429;-68
2022/08/19 06:39:13;;;;;;;1.20;1.10;;;23.60;58.90;;;;;;5034849;28;20451;-69
2022/08/19 06:41:42;;;;;;;1.20;1.20;;;23.60;57.40;;;;;;5034657;28;20474;-68
2022/08/19 06:44:08;;;;;;;1.20;1.20;;;23.30;59.70;;;;;;5033437;28;20456;-69
2022/08/19 06:46:36;;;;;;;1.20;1.20;;;23.30;62.50;;;;;;5034706;28;20454;-69
2022/08/19 06:49:02;;;;;;;1.20;1.00;;;23.40;62.90;;;;;;5034731;28;20430;-68
2022/08/19 06:51:28;;;;;;;1.20;1.10;;;23.20;60.80;;;;;;5034410;28;20909;-68
2022/08/19 06:53:55;;;;;;;1.20;1.10;;;23.20;65.20;;;;;;5034342;28;20639;-68
2022/08/19 06:56:34;;;;;;;1.20;1.07;;;23.20;61.80;;;;;;5033759;28;20455;-69
2022/08/19 06:59:05;;;;;;;1.20;1.17;;;22.50;64.70;;;;;;5034659;28;20920;-68
2022/08/19 07:01:37;;;;;;;1.20;1.10;;;22.10;70.10;;;;;;5021243;28;20465;-69
2022/08/19 07:04:03;;;;;;;1.20;1.20;;;22.10;71.00;;;;;;5014089;28;20425;-67
2022/08/19 07:06:30;;;;;;;1.20;1.10;;;22.50;69.80;;;;;;5025109;28;20453;-69
2022/08/19 07:08:57;;;;;;;1.20;1.10;;;22.80;68.50;;;;;;5034312;28;20409;-68
2022/08/19 07:11:24;;;;;;;1.20;1.10;;;22.90;65.20;;;;;;5033865;28;20411;-68
2022/08/19 07:13:50;;;;;;;1.20;1.20;;;22.90;65.90;;;;;;5033810;28;20410;-69
2022/08/19 07:16:19;;;;;;;1.20;1.10;;;23.10;65.90;;;;;;5032942;28;20446;-69
2022/08/19 07:18:46;;;;;;;1.20;1.13;;;23.00;62.40;;;;;;5034044;28;20418;-69
2022/08/19 07:21:24;;;;;;;1.20;1.20;;;23.00;63.80;;;;;;5033312;28;20421;-68
2022/08/19 07:23:50;;;;;;;1.20;1.10;;;23.10;63.70;;;;;;5031239;28;20437;-69
2022/08/19 07:26:22;;;;;;;1.20;1.10;;;23.20;65.30;;;;;;5034000;28;20472;-69
2022/08/19 07:28:49;;;;;;;1.20;1.17;;;23.20;61.30;;;;;;5033145;28;20452;-68
2022/08/19 07:31:20;;;;;;;1.30;1.20;;;22.40;66.00;;;;;;5033599;28;20777;-68
2022/08/19 07:33:47;;;;;;;1.23;1.20;;;22.30;68.70;;;;;;5033271;28;20418;-69
2022/08/19 07:36:16;;;;;;;1.27;1.20;;;22.30;67.70;;;;;;5033263;28;20802;-68
2022/08/19 07:38:44;;;;;;;1.20;1.20;;;22.60;68.60;;;;;;5033933;28;20416;-68
2022/08/19 07:41:14;;;;;;;1.20;1.20;;;22.80;63.80;;;;;;5033372;28;20417;-69
2022/08/19 07:43:40;;;;;;;1.20;1.10;;;22.90;68.20;;;;;;5033247;28;20513;-68
2022/08/19 07:46:06;;;;;;;1.30;1.20;;;23.10;64.90;;;;;;5020611;28;20542;-69
2022/08/19 07:48:32;;;;;;;1.20;1.10;;;23.40;63.50;;;;;;5013860;28;20256;-69
2022/08/19 07:51:01;;;;;;;1.20;1.10;;;23.00;65.00;;;;;;5013462;28;20935;-69
2022/08/19 07:53:29;;;;;;;1.20;1.10;;;22.80;65.30;;;;;;5013336;28;20415;-67
2022/08/19 07:55:58;;;;;;;1.27;1.20;;;22.80;65.00;;;;;;5021534;28;20454;-69
2022/08/19 07:58:23;;;;;;;1.30;1.20;;;22.60;67.50;;;;;;5033140;28;20502;-68
2022/08/19 08:00:51;;;;;;;1.20;1.20;;;22.70;63.80;;;;;;5031530;28;20834;-68
2022/08/19 08:03:19;;;;;;;1.27;1.20;;;22.80;67.90;;;;;;5032740;28;20202;-69
2022/08/19 08:11:19;;;;;;;1.20;1.10;;;22.80;65.40;;;;;;5013185;28;20823;-69
2022/08/19 08:13:45;;;;;;;1.23;1.20;;;22.50;70.50;;;;;;5012868;28;20410;-69
2022/08/19 08:16:11;;;;;;;1.20;1.13;;;23.00;67.00;;;;;;5013067;28;20430;-69
2022/08/19 08:18:41;;;;;;;1.20;1.17;;;23.40;64.20;;;;;;5030945;28;20201;-69
2022/08/19 08:21:08;;;;;;;1.20;1.10;;;23.50;62.10;;;;;;5032484;28;20186;-69
2022/08/19 08:23:34;;;;;;;1.20;1.10;;;23.60;61.00;;;;;;5032304;28;20461;-69
2022/08/19 08:26:01;;;;;;;1.20;1.20;;;23.60;59.90;;;;;;5032692;28;20954;-68
2022/08/19 08:28:28;;;;;;;1.20;1.20;;;23.60;59.70;;;;;;5032052;28;20422;-69
2022/08/19 08:30:54;;;;;;;1.20;1.10;;;23.60;60.20;;;;;;5031971;28;20764;-69
2022/08/19 08:33:22;;;;;;;1.20;1.13;;;23.60;59.80;;;;;;5032089;28;20958;-69
2022/08/19 08:35:48;;;;;;;1.33;1.30;;;23.60;60.70;;;;;;5032440;28;20430;-68
2022/08/19 08:38:15;;;;;;;1.20;1.10;;;23.50;61.10;;;;;;5031964;28;20461;-68
2022/08/19 08:41:07;;;;;;;1.30;1.30;;;23.10;63.20;;;;;;5032388;28;20414;-68
2022/08/19 08:43:42;;;;;;;1.20;1.20;;;23.10;65.20;;;;;;5021203;28;20484;-69
2022/08/19 08:46:45;;;;;;;1.20;1.10;;;23.40;62.40;;;;;;5032208;28;20794;-69
2022/08/19 08:49:31;;;;;;;1.20;1.17;;;23.30;64.30;;;;;;5031619;28;20413;-69
2022/08/19 08:52:05;;;;;;;1.23;1.20;;;23.20;65.10;;;;;;5032063;28;20753;-69
2022/08/19 08:54:38;;;;;;;1.27;1.20;;;23.40;64.80;;;;;;5031939;28;20520;-69
2022/08/19 08:57:13;;;;;;;1.20;1.13;;;23.20;66.90;;;;;;5032284;28;20418;-69
2022/08/19 08:59:41;;;;;;;1.23;1.23;;;23.20;67.20;;;;;;5031154;28;20851;-69
2022/08/19 09:02:08;;;;;;;1.20;1.10;;;23.10;67.80;;;;;;5031189;28;20459;-68
2022/08/19 09:04:38;;;;;;;1.20;1.20;;;23.40;65.20;;;;;;5031652;28;20459;-69
2022/08/19 09:07:16;;;;;;;1.20;1.17;;;23.40;64.70;;;;;;5032052;28;20996;-69
2022/08/19 09:09:46;;;;;;;1.30;1.20;;;23.40;65.10;;;;;;5031924;28;20390;-69
2022/08/19 09:12:36;;;;;;;1.20;1.10;;;23.40;63.00;;;;;;5031015;28;20520;-69
2022/08/19 09:15:07;;;;;;;1.20;1.20;;;23.40;63.90;;;;;;5031504;28;20448;-69
2022/08/19 09:17:33;;;;;;;1.20;1.20;;;23.30;64.50;;;;;;5031904;28;20396;-68
2022/08/19 09:20:19;;;;;;;1.20;1.13;;;23.10;66.00;;;;;;5031824;28;20413;-68
2022/08/19 09:22:45;;;;;;;1.20;1.10;;;23.10;66.30;;;;;;5030598;28;20457;-69
2022/08/19 09:25:14;;;;;;;1.20;1.20;;;23.20;66.50;;;;;;5031129;28;20495;-69
2022/08/19 09:27:41;;;;;;;1.20;1.10;;;23.10;66.80;;;;;;5030589;28;20430;-69
2022/08/19 09:30:13;;;;;;;1.20;1.10;;;23.20;66.20;;;;;;5031559;28;20431;-70
2022/08/19 09:32:41;;;;;;;1.33;1.27;;;23.10;66.30;;;;;;5030378;28;20411;-69
2022/08/19 09:35:07;;;;;;;1.20;1.10;;;23.10;66.70;;;;;;5031311;28;20445;-69
2022/08/19 09:37:33;;;;;;;1.20;1.20;;;23.00;67.80;;;;;;5032036;28;20503;-69
2022/08/19 09:39:58;;;;;;;1.20;1.17;;;23.20;66.50;;;;;;5031243;28;20424;-69
2022/08/19 09:42:24;;;;;;;1.20;1.00;;;23.30;65.30;;;;;;5030161;28;20450;-69
2022/08/19 09:44:50;;;;;;;1.20;1.20;;;23.30;63.60;;;;;;5030857;28;20171;-68
2022/08/19 09:47:15;;;;;;;1.20;1.10;;;23.20;64.80;;;;;;5031543;28;20327;-69
2022/08/19 09:49:42;;;;;;;1.20;1.10;;;23.20;65.60;;;;;;5030254;28;20178;-69
2022/08/19 09:52:11;;;;;;;1.20;1.10;;;23.20;65.50;;;;;;5030869;28;20171;-69
2022/08/19 09:54:38;;;;;;;1.30;1.27;;;23.20;67.10;;;;;;5030219;28;20867;-69
2022/08/19 09:57:04;;;;;;;1.20;1.20;;;23.10;67.80;;;;;;5031309;28;20784;-69
2022/08/19 09:59:30;;;;;;;1.20;1.20;;;23.00;67.80;;;;;;5031425;28;20425;-69
2022/08/19 10:01:56;;;;;;;1.20;1.10;;;23.10;67.60;;;;;;5030721;28;20198;-69
2022/08/19 10:04:22;;;;;;;1.20;1.20;;;23.10;67.90;;;;;;5030861;28;20428;-69
2022/08/19 10:06:49;;;;;;;1.20;1.20;;;23.20;67.70;;;;;;5030999;28;20250;-69
2022/08/19 10:09:17;;;;;;;1.20;1.20;;;23.20;66.80;;;;;;5031187;28;20413;-69
2022/08/19 10:11:49;;;;;;;1.20;1.10;;;23.30;67.10;;;;;;5031006;28;20430;-69
2022/08/19 10:14:16;;;;;;;1.20;1.20;;;23.30;66.20;;;;;;5030241;28;20419;-68
2022/08/19 10:16:42;;;;;;;1.20;1.20;;;23.20;66.00;;;;;;5025271;28;20488;-69
2022/08/19 10:19:09;;;;;;;1.20;1.10;;;23.20;66.10;;;;;;5031214;28;20419;-69
2022/08/19 10:21:35;;;;;;;1.20;1.10;;;23.40;64.90;;;;;;5028513;28;20460;-69
2022/08/19 10:24:04;;;;;;;1.20;1.10;;;23.40;65.80;;;;;;5029327;28;20483;-69
2022/08/19 10:26:33;;;;;;;1.20;1.10;;;23.40;65.80;;;;;;5030997;28;20569;-69
2022/08/19 10:28:59;;;;;;;1.20;1.20;;;23.50;64.80;;;;;;5031097;28;20396;-69
2022/08/19 10:31:30;;;;;;;1.20;1.20;;;23.50;64.40;;;;;;5030629;28;20438;-69
2022/08/19 10:33:59;;;;;;;1.20;1.20;;;23.50;65.50;;;;;;5030518;28;20407;-69
2022/08/19 10:36:31;;;;;;;1.20;1.20;;;23.40;65.20;;;;;;5030487;28;20481;-69
2022/08/19 10:39:01;;;;;;;1.20;1.10;;;23.20;66.90;;;;;;5031104;28;20398;-69
2022/08/19 10:41:29;;;;;;;1.20;1.13;;;23.20;66.80;;;;;;5030511;28;20409;-69
2022/08/19 10:44:00;;;;;;;1.20;1.10;;;23.50;64.70;;;;;;5030352;28;20422;-69
2022/08/19 10:46:27;;;;;;;1.20;1.20;;;23.50;65.50;;;;;;5030633;28;20452;-68
2022/08/19 10:48:53;;;;;;;1.40;1.30;;;23.50;64.00;;;;;;5030971;28;20413;-69
2022/08/19 10:54:04;;;;;;;1.20;1.10;;;22.40;71.90;;;;;;5030508;28;20929;-69
2022/08/19 10:59:16;;;;;;;1.20;1.10;;;22.50;75.90;;;;;;5034350;28;20245;-69
2022/08/19 11:01:44;;;;;;;1.20;1.17;;;22.80;73.30;;;;;;5033901;28;20451;-69
2022/08/19 11:04:11;;;;;;;1.20;1.10;;;23.10;69.90;;;;;;5033931;28;20919;-69
2022/08/19 11:06:38;;;;;;;1.20;1.10;;;23.20;67.50;;;;;;5034077;28;20429;-69
2022/08/19 11:09:05;;;;;;;1.20;1.20;;;23.40;66.20;;;;;;5034012;28;20472;-69
2022/08/19 11:11:31;;;;;;;1.20;1.10;;;23.30;67.50;;;;;;5033538;28;20784;-69
2022/08/19 11:13:58;;;;;;;1.20;1.10;;;23.40;67.60;;;;;;5033788;28;20501;-69
2022/08/19 11:16:29;;;;;;;1.20;1.10;;;23.40;67.40;;;;;;5033889;28;20526;-69
2022/08/19 11:18:58;;;;;;;1.20;1.20;;;23.40;67.10;;;;;;5034535;28;20444;-69
2022/08/19 11:21:33;;;;;;;1.20;1.10;;;23.40;68.00;;;;;;5033437;28;20500;-69
2022/08/19 11:24:15;;;;;;;1.20;1.10;;;23.40;68.50;;;;;;5033947;28;20505;-69
2022/08/19 11:26:42;;;;;;;1.20;1.20;;;23.20;69.60;;;;;;5033447;28;20520;-69
2022/08/19 11:29:13;;;;;;;1.20;1.10;;;23.20;69.60;;;;;;5033959;28;20407;-69
2022/08/19 11:31:42;;;;;;;1.20;1.10;;;23.30;69.20;;;;;;5033390;28;20473;-69
2022/08/19 11:34:11;;;;;;;1.20;1.10;;;23.30;68.70;;;;;;5033301;28;20418;-68
2022/08/19 11:36:39;;;;;;;1.20;1.20;;;23.40;67.60;;;;;;5033360;28;20440;-69
2022/08/19 11:39:07;;;;;;;1.20;1.20;;;23.50;68.20;;;;;;5033715;28;20450;-68
2022/08/19 11:41:32;;;;;;;1.20;1.10;;;23.50;68.50;;;;;;5032625;28;20530;-69
2022/08/19 11:43:58;;;;;;;1.20;1.20;;;25.40;69.40;;;;;;5032661;28;20979;-69
2022/08/19 11:46:28;;;;;;;1.20;1.10;;;23.50;67.60;;;;;;5033317;28;20287;-69
2022/08/19 11:48:54;;;;;;;1.20;1.20;;;23.60;68.70;;;;;;5033527;28;20249;-69
2022/08/19 11:51:24;;;;;;;1.20;1.10;;;23.60;69.20;;;;;;5033011;28;20888;-69
2022/08/19 11:53:50;;;;;;;1.20;1.10;;;23.60;68.90;;;;;;5033096;28;20422;-69
2022/08/19 11:56:18;;;;;;;1.20;1.13;;;23.60;69.40;;;;;;5033032;28;20433;-69
2022/08/19 11:58:44;;;;;;;1.20;1.10;;;23.60;68.20;;;;;;5033322;28;20446;-69
2022/08/19 12:01:12;;;;;;;1.20;1.20;;;23.50;69.20;;;;;;5032598;28;20422;-68
2022/08/19 12:03:39;;;;;;;1.20;1.10;;;23.60;70.10;;;;;;5032687;28;20203;-69
2022/08/19 12:06:06;;;;;;;1.20;1.20;;;23.60;70.30;;;;;;5033097;28;20418;-69
2022/08/19 12:08:32;;;;;;;1.20;1.00;;;23.60;69.90;;;;;;5031526;28;20800;-69
2022/08/19 12:10:57;;;;;;;1.20;1.10;;;23.60;69.60;;;;;;5032614;28;20475;-68
2022/08/19 12:13:23;;;;;;;1.20;1.10;;;23.60;69.00;;;;;;5032592;28;20697;-69
2022/08/19 12:15:49;;;;;;;1.20;1.20;;;23.70;68.70;;;;;;5032948;28;20241;-69
2022/08/19 12:18:15;;;;;;;1.40;1.30;;;23.70;68.70;;;;;;5032022;28;20755;-69
2022/08/19 12:20:42;;;;;;;1.20;1.10;;;23.60;68.90;;;;;;5032398;28;20194;-69
2022/08/19 12:23:09;;;;;;;1.20;1.17;;;23.60;69.40;;;;;;5032663;28;20226;-69
2022/08/19 12:25:35;;;;;;;1.20;1.20;;;23.70;68.60;;;;;;5032461;28;20447;-69
2022/08/19 12:28:02;;;;;;;1.20;1.10;;;23.70;68.70;;;;;;5032786;28;20415;-69
2022/08/19 12:30:27;;;;;;;1.20;1.10;;;23.60;68.20;;;;;;5032662;28;20439;-69
2022/08/19 12:32:53;;;;;;;1.20;1.20;;;23.70;69.30;;;;;;5032012;28;20451;-69
2022/08/19 12:35:22;;;;;;;1.20;1.10;;;23.70;67.60;;;;;;5031284;28;20252;-69
2022/08/19 12:37:48;;;;;;;1.20;1.20;;;23.70;68.30;;;;;;5032413;28;20171;-69
2022/08/19 12:40:16;;;;;;;1.20;1.10;;;23.70;67.90;;;;;;5032477;28;20867;-69
2022/08/19 12:42:42;;;;;;;1.20;1.20;;;23.80;67.80;;;;;;5031671;28;20966;-69
2022/08/19 12:45:10;;;;;;;1.20;1.10;;;23.90;68.00;;;;;;5025687;28;20435;-69
2022/08/19 12:47:36;;;;;;;1.20;1.13;;;23.90;68.50;;;;;;5028852;28;20189;-69
2022/08/19 12:50:02;;;;;;;1.20;1.10;;;23.90;68.70;;;;;;5028785;28;20488;-69
2022/08/19 12:52:28;;;;;;;1.20;1.20;;;23.90;68.60;;;;;;5026717;28;20184;-70
2022/08/19 12:54:55;;;;;;;1.20;1.20;;;23.90;67.70;;;;;;5022239;28;20441;-69
2022/08/19 12:57:26;;;;;;;1.20;1.17;;;23.90;67.80;;;;;;5031451;28;20625;-68
2022/08/19 12:59:55;;;;;;;1.20;1.13;;;23.90;68.10;;;;;;5032325;28;20446;-70
2022/08/19 13:02:22;;;;;;;1.20;1.20;;;23.90;68.10;;;;;;5024999;28;21037;-68
2022/08/19 13:04:48;;;;;;;1.20;1.10;;;23.90;67.80;;;;;;5023553;28;20522;-69
2022/08/19 13:07:14;;;;;;;1.20;1.20;;;24.00;68.80;;;;;;5031597;28;20881;-69
2022/08/19 13:09:42;;;;;;;1.20;1.20;;;24.00;67.90;;;;;;5031275;28;20589;-69